Friday, June 22, 2018, 3:25 AM EDT
Back to Local

KWST, Westerly State Airport

Location: Westerly, RI, United States Lat: 41.35
Local Time: 3:25 AM EDT ( 7:25 GMT) Lon: -71.8
Time Zone: US/Eastern Elev: 82 ft

Show me the last for .
Show Decoded

2018-06-22 03:10 METAR KWST 220710Z AUTO 05003KT 9SM OVC004 18/18 A2992 RMK AO2 T01780178 =
2018-06-22 02:53 METAR KWST 220653Z AUTO 05003KT 10SM OVC005 18/18 A2991 RMK AO2 SLP128 T01830178
                 =
2018-06-22 02:21 METAR KWST 220621Z AUTO 02004KT 10SM OVC004 18/18 A2991 RMK AO2 T01830178 =
2018-06-22 02:09 METAR KWST 220609Z AUTO 02004KT 5SM BR OVC002 18/18 A2991 RMK AO2 T01830183 =
2018-06-22 02:02 METAR KWST 220602Z AUTO 03004KT 2SM BR OVC002 18/18 A2991 RMK AO2 T01830183 =
2018-06-22 01:53 METAR KWST 220553Z AUTO 01003KT 3/4SM BR VV002 18/18 A2991 RMK AO2 SLP128
                 T01830183 10183 20178 51005 =
2018-06-22 01:51 METAR KWST 220551Z AUTO 02003KT 3/4SM BR VV002 18/18 A2991 RMK AO2 =
2018-06-22 01:35 METAR KWST 220535Z AUTO 09003KT 1SM BR VV002 18/18 A2991 RMK AO2 T01830183 =
2018-06-22 01:01 METAR KWST 220501Z AUTO 00000KT 3/4SM BR OVC002 18/18 A2991 RMK AO2 T01830183 =
2018-06-22 00:53 METAR KWST 220453Z AUTO 00000KT 1SM BR OVC002 18/18 A2991 RMK AO2 SLP127
                 T01830183 402390178 =
2018-06-22 00:32 METAR KWST 220432Z AUTO 09004KT 1SM BR OVC002 18/18 A2990 RMK AO2 T01780178 =
2018-06-22 00:25 METAR KWST 220425Z AUTO 08004KT 2SM BR OVC002 18/18 A2991 RMK AO2 VIS 1V4
                 T01780178 =
2018-06-22 00:14 METAR KWST 220414Z AUTO 03004KT 3SM BR OVC002 18/18 A2990 RMK AO2 T01830183 =
2018-06-21 23:53 METAR KWST 220353Z AUTO 03003KT 1 1/4SM BR OVC002 18/18 A2990 RMK AO2 SLP123
                 T01830183 =
2018-06-21 23:44 METAR KWST 220344Z AUTO 04003KT 1SM BR OVC002 18/18 A2989 RMK AO2 T01830183 =
2018-06-21 23:36 METAR KWST 220336Z AUTO 00000KT 3/4SM BR OVC002 18/18 A2989 RMK AO2 T01830183 =
2018-06-21 22:53 METAR KWST 220253Z AUTO 05003KT 1 1/2SM BR OVC002 18/18 A2989 RMK AO2 SLP120
                 T01830183 53016 =
2018-06-21 21:53 METAR KWST 220153Z AUTO 08003KT 1 1/2SM BR OVC002 18/18 A2987 RMK AO2 SLP115
                 T01780178 =
2018-06-21 21:35 METAR KWST 220135Z AUTO 08004KT 1SM BR VV002 18/18 A2987 RMK AO2 T01780178 =
2018-06-21 20:53 METAR KWST 220053Z AUTO 08005KT 3/4SM BR OVC002 18/18 A2985 RMK AO2 SLP105
                 T01830183 =
2018-06-21 20:50 METAR KWST 220050Z AUTO 09005KT 1SM BR OVC002 18/18 A2984 RMK AO2 =
2018-06-21 20:36 METAR KWST 220036Z AUTO 09005KT 1 3/4SM BR OVC003 18/18 A2984 RMK AO2 T01830183
                 =
2018-06-21 20:19 METAR KWST 220019Z AUTO 09004KT 9SM OVC003 18/18 A2983 RMK AO2 T01830183 =
2018-06-21 19:54 METAR KWST 212354Z AUTO 11006KT 4SM BR OVC002 19/18 A2983 RMK AO2 T01890183 =
2018-06-21 19:51 METAR KWST 212351Z AUTO 11005KT 1 1/4SM BR OVC002 19/19 A2983 RMK AO2 SLP099
                 T01890189 10228 20183 53018 =
2018-06-21 19:50 METAR KWST 212350Z AUTO 10005KT 1SM BR OVC002 19/18 A2983 RMK AO2 =
2018-06-21 19:44 METAR KWST 212344Z AUTO 12005KT 1/4SM FG VV002 19/18 A2983 RMK AO2 T01890183 =
2018-06-21 19:33 METAR KWST 212333Z AUTO 14005KT 1/4SM FG OVC003 19/19 A2983 RMK AO2 T01890189 =
2018-06-21 19:28 METAR KWST 212328Z AUTO 14006KT 1 1/4SM BR BKN003 OVC045 19/19 A2983 RMK AO2 VIS
                 1/4V5 T01890189
2018-06-21 19:25 METAR KWST 212325Z AUTO 15006KT 4SM BR BKN004 OVC045 19/19 A2982 RMK AO2
                 T01890189 =
2018-06-21 19:04 METAR KWST 212304Z AUTO 13007KT 10SM SCT006 SCT013 OVC047 20/19 A2982 RMK AO2
                 T02000189 =
2018-06-21 18:53 METAR KWST 212253Z AUTO 11007KT 10SM BKN006 BKN011 OVC044 19/18 A2981 RMK AO2
                 CIG 004V008 SLP095 T01940183 =
2018-06-21 18:29 METAR KWST 212229Z AUTO 14006KT 10SM BKN008 20/18 A2980 RMK AO2 CIG 006V011
                 T02000183 =
2018-06-21 18:14 METAR KWST 212214Z AUTO 17007KT 10SM FEW008 21/19 A2979 RMK AO2 T02110189 =
2018-06-21 17:53 METAR KWST 212153Z AUTO 13006KT 10SM CLR 21/19 A2978 RMK AO2 SLP084 T02110189 =
2018-06-21 16:53 METAR KWST 212053Z AUTO 15008KT 10SM FEW008 22/19 A2977 RMK AO2 SLP081 T02170189
                 53000 =
2018-06-21 15:53 METAR KWST 211953Z AUTO 16007KT 10SM CLR 22/19 A2976 RMK AO2 SLP077 T02170189 =
2018-06-21 14:53 METAR KWST 211853Z AUTO 17007KT 10SM CLR 22/19 A2977 RMK AO2 SLP078 T02220194 =
2018-06-21 13:53 METAR KWST 211753Z AUTO 15007KT 10SM CLR 22/19 A2977 RMK AO2 SLP081 60001
                 T02220194 10239 20183 56008 =
2018-06-21 12:53 METAR KWST 211653Z AUTO 15010KT 10SM CLR 22/19 A2978 RMK AO2 SLP082 T02220194 =
2018-06-21 11:53 METAR KWST 211553Z AUTO 15006KT 10SM FEW018 BKN085 23/19 A2979 RMK AO2 SLP088
                 T02280194 =
2018-06-21 10:53 METAR KWST 211453Z AUTO 09005KT 10SM FEW008 22/19 A2980 RMK AO2 SLP089 60001
                 T02170189 53002 =
2018-06-21 10:37 METAR KWST 211437Z AUTO 06003KT 10SM SCT008 22/19 A2980 RMK AO2 T02170189 =
2018-06-21 10:15 METAR KWST 211415Z AUTO 06004KT 10SM BKN008 BKN070 21/18 A2980 RMK AO2 T02060183
                 =
2018-06-21 09:53 METAR KWST 211353Z AUTO 08005KT 10SM FEW007 BKN070 20/18 A2979 RMK AO2 SLP088
                 T02000183 =
2018-06-21 09:50 METAR KWST 211350Z AUTO 07003KT 10SM FEW007 BKN070 20/18 A2979 RMK AO2 =
2018-06-21 08:53 METAR KWST 211253Z AUTO 08004KT 10SM OVC065 19/18 A2979 RMK AO2 RAE16 SLP088
                 P0001 T01890178 =
2018-06-21 07:53 METAR KWST 211153Z AUTO 00000KT 10SM -RA FEW048 BKN065 OVC100 18/18 A2978 RMK
                 AO2 RAB35 SLP084 P0000 60020 70020 T01830178 10206 20178 53001 =
2018-06-21 06:53 METAR KWST 211053Z AUTO 00000KT 10SM FEW050 OVC075 18/18 A2977 RMK AO2 RAE01
                 SLP079 P0000 T01830178 =
2018-06-21 05:53 METAR KWST 210953Z AUTO 19004KT 7SM -RA SCT060 OVC080 18/17 A2977 RMK AO2 SLP081
                 P0009 T01780172 =
2018-06-21 05:14 METAR KWST 210914Z AUTO 20005KT 3SM RA BR SCT050 BKN060 OVC085 18/18 A2977 RMK
                 AO2 P0008 T01830178 =
2018-06-21 05:03 METAR KWST 210903Z AUTO 21004KT 2 1/2SM RA BR OVC050 18/18 A2977 RMK AO2 P0004
                 T01830178 =
2018-06-21 04:53 METAR KWST 210853Z AUTO 23005KT 3SM RA BR FEW005 OVC050 19/18 A2978 RMK AO2
                 SLP083 P0006 60011 T01890178 55001 =
2018-06-21 04:20 METAR KWST 210820Z AUTO 23008KT 6SM -RA BR SCT003 SCT023 OVC060 19/19 A2977 RMK
                 AO2 P0001 T01940194 =
2018-06-21 03:53 METAR KWST 210753Z AUTO 23007KT 5SM -RA BR BKN003 OVC007 20/19 A2977 RMK AO2
                 SLP080 P0005 T02000194 =
2018-06-21 03:27 METAR KWST 210727Z AUTO 23004KT 7SM -RA BKN007 OVC070 19/19 A2978 RMK AO2 P0003
                 T01940189 =

Support USWX by starting your Amazon purchase here.